sensor_id;sensor_type;location;lat;lon;timestamp;temperature;humidity
71177;DHT22;58877;51.992;4.504;2024-02-15T00:01:23;14.11;84.71
71177;DHT22;58877;51.992;4.504;2024-02-15T00:03:49;14.06;84.66
71177;DHT22;58877;51.992;4.504;2024-02-15T00:06:15;13.97;84.79
71177;DHT22;58877;51.992;4.504;2024-02-15T00:08:44;13.94;84.97
71177;DHT22;58877;51.992;4.504;2024-02-15T00:11:10;14.00;84.77
71177;DHT22;58877;51.992;4.504;2024-02-15T00:13:36;14.07;84.75
71177;DHT22;58877;51.992;4.504;2024-02-15T00:16:02;14.11;84.43
71177;DHT22;58877;51.992;4.504;2024-02-15T00:18:27;14.06;84.53
71177;DHT22;58877;51.992;4.504;2024-02-15T00:20:53;14.09;84.62
71177;DHT22;58877;51.992;4.504;2024-02-15T00:23:20;14.11;84.24
71177;DHT22;58877;51.992;4.504;2024-02-15T00:25:45;14.09;84.31
71177;DHT22;58877;51.992;4.504;2024-02-15T00:28:11;14.00;84.57
71177;DHT22;58877;51.992;4.504;2024-02-15T00:30:38;14.03;84.58
71177;DHT22;58877;51.992;4.504;2024-02-15T00:33:04;13.93;84.92
71177;DHT22;58877;51.992;4.504;2024-02-15T00:35:29;13.93;85.03
71177;DHT22;58877;51.992;4.504;2024-02-15T00:37:57;13.91;84.87
71177;DHT22;58877;51.992;4.504;2024-02-15T00:40:23;13.96;84.80
71177;DHT22;58877;51.992;4.504;2024-02-15T00:42:51;13.94;85.00
71177;DHT22;58877;51.992;4.504;2024-02-15T00:45:17;13.87;85.18
71177;DHT22;58877;51.992;4.504;2024-02-15T00:47:42;13.86;85.22
71177;DHT22;58877;51.992;4.504;2024-02-15T00:50:12;13.93;85.00
71177;DHT22;58877;51.992;4.504;2024-02-15T00:52:38;13.91;84.92
71177;DHT22;58877;51.992;4.504;2024-02-15T00:55:04;13.89;85.03
71177;DHT22;58877;51.992;4.504;2024-02-15T00:57:30;13.89;85.12
71177;DHT22;58877;51.992;4.504;2024-02-15T00:59:56;13.93;85.02
71177;DHT22;58877;51.992;4.504;2024-02-15T01:02:21;13.94;85.12
71177;DHT22;58877;51.992;4.504;2024-02-15T01:04:49;13.94;85.00
71177;DHT22;58877;51.992;4.504;2024-02-15T01:07:15;13.90;85.06
71177;DHT22;58877;51.992;4.504;2024-02-15T01:09:41;13.99;84.91
71177;DHT22;58877;51.992;4.504;2024-02-15T01:12:06;13.99;84.86
71177;DHT22;58877;51.992;4.504;2024-02-15T01:14:32;13.90;85.11
71177;DHT22;58877;51.992;4.504;2024-02-15T01:16:58;13.90;85.10
71177;DHT22;58877;51.992;4.504;2024-02-15T01:19:24;13.91;85.20
71177;DHT22;58877;51.992;4.504;2024-02-15T01:21:52;13.90;85.06
71177;DHT22;58877;51.992;4.504;2024-02-15T01:24:18;13.87;85.18
71177;DHT22;58877;51.992;4.504;2024-02-15T01:26:44;13.81;85.18
71177;DHT22;58877;51.992;4.504;2024-02-15T01:29:10;13.81;85.24
71177;DHT22;58877;51.992;4.504;2024-02-15T01:31:37;13.84;85.27
71177;DHT22;58877;51.992;4.504;2024-02-15T01:34:04;13.80;85.20
71177;DHT22;58877;51.992;4.504;2024-02-15T01:36:29;13.79;85.46
71177;DHT22;58877;51.992;4.504;2024-02-15T01:38:56;13.74;85.35
71177;DHT22;58877;51.992;4.504;2024-02-15T01:41:21;13.74;85.40
71177;DHT22;58877;51.992;4.504;2024-02-15T01:43:47;13.81;85.33
71177;DHT22;58877;51.992;4.504;2024-02-15T01:46:14;13.80;85.49
71177;DHT22;58877;51.992;4.504;2024-02-15T01:48:41;13.74;85.51
71177;DHT22;58877;51.992;4.504;2024-02-15T01:51:10;13.73;85.38
71177;DHT22;58877;51.992;4.504;2024-02-15T01:53:38;13.77;85.42
71177;DHT22;58877;51.992;4.504;2024-02-15T01:56:04;13.74;85.37
71177;DHT22;58877;51.992;4.504;2024-02-15T01:58:32;13.79;85.31
71177;DHT22;58877;51.992;4.504;2024-02-15T02:01:00;13.76;85.01
71177;DHT22;58877;51.992;4.504;2024-02-15T02:03:25;13.77;85.51
71177;DHT22;58877;51.992;4.504;2024-02-15T02:05:51;13.79;85.45
71177;DHT22;58877;51.992;4.504;2024-02-15T02:08:16;13.81;85.14
71177;DHT22;58877;51.992;4.504;2024-02-15T02:10:42;13.76;85.23
71177;DHT22;58877;51.992;4.504;2024-02-15T02:13:09;13.81;85.16
71177;DHT22;58877;51.992;4.504;2024-02-15T02:15:35;13.70;85.40
71177;DHT22;58877;51.992;4.504;2024-02-15T02:18:11;13.70;85.60
71177;DHT22;58877;51.992;4.504;2024-02-15T02:20:36;13.77;85.49
71177;DHT22;58877;51.992;4.504;2024-02-15T02:23:16;13.86;85.11
71177;DHT22;58877;51.992;4.504;2024-02-15T02:25:44;13.81;84.67
71177;DHT22;58877;51.992;4.504;2024-02-15T02:28:12;13.76;85.41
71177;DHT22;58877;51.992;4.504;2024-02-15T02:30:38;13.83;85.17
71177;DHT22;58877;51.992;4.504;2024-02-15T02:33:11;13.81;85.01
71177;DHT22;58877;51.992;4.504;2024-02-15T02:35:37;13.84;85.00
71177;DHT22;58877;51.992;4.504;2024-02-15T02:38:02;13.83;84.99
71177;DHT22;58877;51.992;4.504;2024-02-15T02:40:28;13.86;85.04
71177;DHT22;58877;51.992;4.504;2024-02-15T02:42:56;13.79;85.04
71177;DHT22;58877;51.992;4.504;2024-02-15T02:45:27;13.84;85.16
71177;DHT22;58877;51.992;4.504;2024-02-15T02:47:53;13.83;85.14
71177;DHT22;58877;51.992;4.504;2024-02-15T02:50:20;13.83;84.96
71177;DHT22;58877;51.992;4.504;2024-02-15T02:52:46;13.84;84.95
71177;DHT22;58877;51.992;4.504;2024-02-15T02:55:14;13.84;84.98
71177;DHT22;58877;51.992;4.504;2024-02-15T02:57:40;13.90;85.13
71177;DHT22;58877;51.992;4.504;2024-02-15T03:00:09;13.93;84.72
71177;DHT22;58877;51.992;4.504;2024-02-15T03:02:39;13.83;85.19
71177;DHT22;58877;51.992;4.504;2024-02-15T03:05:06;13.91;85.46
71177;DHT22;58877;51.992;4.504;2024-02-15T03:07:34;13.80;85.45
71177;DHT22;58877;51.992;4.504;2024-02-15T03:10:07;13.81;85.65
71177;DHT22;58877;51.992;4.504;2024-02-15T03:12:37;13.90;85.47
71177;DHT22;58877;51.992;4.504;2024-02-15T03:15:07;13.99;85.35
71177;DHT22;58877;51.992;4.504;2024-02-15T03:17:48;13.97;85.28
71177;DHT22;58877;51.992;4.504;2024-02-15T03:20:15;13.91;85.44
71177;DHT22;58877;51.992;4.504;2024-02-15T03:22:57;13.94;85.58
71177;DHT22;58877;51.992;4.504;2024-02-15T03:25:24;13.89;85.71
71177;DHT22;58877;51.992;4.504;2024-02-15T03:27:51;13.83;86.25
71177;DHT22;58877;51.992;4.504;2024-02-15T03:30:18;13.80;86.38
71177;DHT22;58877;51.992;4.504;2024-02-15T03:32:48;13.83;86.52
71177;DHT22;58877;51.992;4.504;2024-02-15T03:35:18;13.83;86.64
71177;DHT22;58877;51.992;4.504;2024-02-15T03:37:44;13.86;86.41
71177;DHT22;58877;51.992;4.504;2024-02-15T03:40:09;13.86;86.39
71177;DHT22;58877;51.992;4.504;2024-02-15T03:42:35;13.89;86.57
71177;DHT22;58877;51.992;4.504;2024-02-15T03:45:06;13.90;86.35
71177;DHT22;58877;51.992;4.504;2024-02-15T03:47:32;13.87;86.70
71177;DHT22;58877;51.992;4.504;2024-02-15T03:49:59;13.87;86.44
71177;DHT22;58877;51.992;4.504;2024-02-15T03:52:25;13.83;86.83
71177;DHT22;58877;51.992;4.504;2024-02-15T03:54:50;13.74;87.10
71177;DHT22;58877;51.992;4.504;2024-02-15T03:57:18;13.76;87.02
71177;DHT22;58877;51.992;4.504;2024-02-15T03:59:46;13.69;87.66
71177;DHT22;58877;51.992;4.504;2024-02-15T04:02:16;13.65;87.50
71177;DHT22;58877;51.992;4.504;2024-02-15T04:04:41;13.67;87.56
71177;DHT22;58877;51.992;4.504;2024-02-15T04:07:08;13.70;87.79
71177;DHT22;58877;51.992;4.504;2024-02-15T04:09:37;13.65;87.62
71177;DHT22;58877;51.992;4.504;2024-02-15T04:12:02;13.65;87.80
71177;DHT22;58877;51.992;4.504;2024-02-15T04:14:28;13.66;88.05
71177;DHT22;58877;51.992;4.504;2024-02-15T04:16:54;13.65;87.98
71177;DHT22;58877;51.992;4.504;2024-02-15T04:19:22;13.69;87.90
71177;DHT22;58877;51.992;4.504;2024-02-15T04:21:48;13.62;88.01
71177;DHT22;58877;51.992;4.504;2024-02-15T04:24:13;13.52;88.50
71177;DHT22;58877;51.992;4.504;2024-02-15T04:26:39;13.59;88.39
71177;DHT22;58877;51.992;4.504;2024-02-15T04:29:05;13.60;88.34
71177;DHT22;58877;51.992;4.504;2024-02-15T04:31:34;13.56;88.50
71177;DHT22;58877;51.992;4.504;2024-02-15T04:34:02;13.58;88.46
71177;DHT22;58877;51.992;4.504;2024-02-15T04:36:28;13.58;88.57
71177;DHT22;58877;51.992;4.504;2024-02-15T04:38:59;13.66;88.47
71177;DHT22;58877;51.992;4.504;2024-02-15T04:41:25;13.59;88.25
71177;DHT22;58877;51.992;4.504;2024-02-15T04:43:51;13.60;88.51
71177;DHT22;58877;51.992;4.504;2024-02-15T04:46:19;13.56;88.40
71177;DHT22;58877;51.992;4.504;2024-02-15T04:48:48;13.60;88.56
71177;DHT22;58877;51.992;4.504;2024-02-15T04:51:17;13.60;88.34
71177;DHT22;58877;51.992;4.504;2024-02-15T04:53:46;13.67;88.27
71177;DHT22;58877;51.992;4.504;2024-02-15T04:56:13;13.65;88.31
71177;DHT22;58877;51.992;4.504;2024-02-15T04:58:42;13.65;88.23
71177;DHT22;58877;51.992;4.504;2024-02-15T05:01:17;13.71;88.33
71177;DHT22;58877;51.992;4.504;2024-02-15T05:03:44;13.74;87.80
71177;DHT22;58877;51.992;4.504;2024-02-15T05:06:10;13.73;87.84
71177;DHT22;58877;51.992;4.504;2024-02-15T05:08:38;13.77;87.90
71177;DHT22;58877;51.992;4.504;2024-02-15T05:11:11;13.80;87.65
71177;DHT22;58877;51.992;4.504;2024-02-15T05:13:49;13.77;87.74
71177;DHT22;58877;51.992;4.504;2024-02-15T05:16:18;13.70;87.91
71177;DHT22;58877;51.992;4.504;2024-02-15T05:18:44;13.74;88.02
71177;DHT22;58877;51.992;4.504;2024-02-15T05:21:11;13.67;87.92
71177;DHT22;58877;51.992;4.504;2024-02-15T05:23:40;13.66;88.03
71177;DHT22;58877;51.992;4.504;2024-02-15T05:26:07;13.65;88.01
71177;DHT22;58877;51.992;4.504;2024-02-15T05:28:33;13.65;88.19
71177;DHT22;58877;51.992;4.504;2024-02-15T05:31:18;13.67;87.95
71177;DHT22;58877;51.992;4.504;2024-02-15T05:33:46;13.70;88.10
71177;DHT22;58877;51.992;4.504;2024-02-15T05:36:15;13.65;87.86
71177;DHT22;58877;51.992;4.504;2024-02-15T05:38:47;13.73;87.89
71177;DHT22;58877;51.992;4.504;2024-02-15T05:41:13;13.65;87.97
71177;DHT22;58877;51.992;4.504;2024-02-15T05:43:39;13.59;88.30
71177;DHT22;58877;51.992;4.504;2024-02-15T05:46:08;13.59;88.20
71177;DHT22;58877;51.992;4.504;2024-02-15T05:48:34;13.53;88.45
71177;DHT22;58877;51.992;4.504;2024-02-15T05:51:04;13.58;88.28
71177;DHT22;58877;51.992;4.504;2024-02-15T05:53:30;13.53;88.39
71177;DHT22;58877;51.992;4.504;2024-02-15T05:55:56;13.59;88.32
71177;DHT22;58877;51.992;4.504;2024-02-15T05:58:25;13.60;88.36
71177;DHT22;58877;51.992;4.504;2024-02-15T06:00:50;13.59;88.32
71177;DHT22;58877;51.992;4.504;2024-02-15T06:03:17;13.58;88.26
71177;DHT22;58877;51.992;4.504;2024-02-15T06:05:43;13.58;88.38
71177;DHT22;58877;51.992;4.504;2024-02-15T06:08:13;13.58;88.42
71177;DHT22;58877;51.992;4.504;2024-02-15T06:10:39;13.56;88.37
71177;DHT22;58877;51.992;4.504;2024-02-15T06:13:05;13.55;88.35
71177;DHT22;58877;51.992;4.504;2024-02-15T06:15:31;13.50;88.73
71177;DHT22;58877;51.992;4.504;2024-02-15T06:18:00;13.60;88.64
71177;DHT22;58877;51.992;4.504;2024-02-15T06:20:28;13.58;88.35
71177;DHT22;58877;51.992;4.504;2024-02-15T06:22:55;13.59;88.43
71177;DHT22;58877;51.992;4.504;2024-02-15T06:25:21;13.60;88.46
71177;DHT22;58877;51.992;4.504;2024-02-15T06:27:47;13.52;88.83
71177;DHT22;58877;51.992;4.504;2024-02-15T06:30:14;13.48;88.91
71177;DHT22;58877;51.992;4.504;2024-02-15T06:32:59;13.55;88.78
71177;DHT22;58877;51.992;4.504;2024-02-15T06:35:43;13.63;88.58
71177;DHT22;58877;51.992;4.504;2024-02-15T06:38:27;13.69;88.34
71177;DHT22;58877;51.992;4.504;2024-02-15T06:41:12;13.66;88.30
71177;DHT22;58877;51.992;4.504;2024-02-15T06:43:38;13.67;88.37
71177;DHT22;58877;51.992;4.504;2024-02-15T06:46:08;13.63;88.24
71177;DHT22;58877;51.992;4.504;2024-02-15T06:48:36;13.62;88.69
71177;DHT22;58877;51.992;4.504;2024-02-15T06:51:02;13.74;88.40
71177;DHT22;58877;51.992;4.504;2024-02-15T06:53:31;13.65;88.28
71177;DHT22;58877;51.992;4.504;2024-02-15T06:55:58;13.71;88.34
71177;DHT22;58877;51.992;4.504;2024-02-15T06:58:23;13.60;88.45
71177;DHT22;58877;51.992;4.504;2024-02-15T07:00:49;13.58;88.66
71177;DHT22;58877;51.992;4.504;2024-02-15T07:03:15;13.60;88.50
71177;DHT22;58877;51.992;4.504;2024-02-15T07:05:42;13.60;88.50
71177;DHT22;58877;51.992;4.504;2024-02-15T07:08:18;13.55;88.68
71177;DHT22;58877;51.992;4.504;2024-02-15T07:10:43;13.63;88.81
71177;DHT22;58877;51.992;4.504;2024-02-15T07:13:09;13.60;88.73
71177;DHT22;58877;51.992;4.504;2024-02-15T07:15:36;13.62;88.65
71177;DHT22;58877;51.992;4.504;2024-02-15T07:18:05;13.55;88.84
71177;DHT22;58877;51.992;4.504;2024-02-15T07:20:32;13.59;88.69
71177;DHT22;58877;51.992;4.504;2024-02-15T07:22:58;13.60;88.82
71177;DHT22;58877;51.992;4.504;2024-02-15T07:25:24;13.53;89.07
71177;DHT22;58877;51.992;4.504;2024-02-15T07:27:49;13.52;88.95
71177;DHT22;58877;51.992;4.504;2024-02-15T07:30:15;13.58;89.14
71177;DHT22;58877;51.992;4.504;2024-02-15T07:32:41;13.66;89.00
71177;DHT22;58877;51.992;4.504;2024-02-15T07:35:06;13.62;88.70
71177;DHT22;58877;51.992;4.504;2024-02-15T07:37:34;13.71;88.83
71177;DHT22;58877;51.992;4.504;2024-02-15T07:40:28;13.62;88.76
71177;DHT22;58877;51.992;4.504;2024-02-15T07:43:05;13.65;88.90
71177;DHT22;58877;51.992;4.504;2024-02-15T07:45:34;13.71;88.57
71177;DHT22;58877;51.992;4.504;2024-02-15T07:48:04;13.67;88.94
71177;DHT22;58877;51.992;4.504;2024-02-15T07:50:32;13.71;88.58
71177;DHT22;58877;51.992;4.504;2024-02-15T07:52:58;13.79;88.51
71177;DHT22;58877;51.992;4.504;2024-02-15T07:55:24;13.79;88.47
71177;DHT22;58877;51.992;4.504;2024-02-15T07:57:50;13.77;88.44
71177;DHT22;58877;51.992;4.504;2024-02-15T08:00:17;13.74;88.35
71177;DHT22;58877;51.992;4.504;2024-02-15T08:02:43;13.80;88.11
71177;DHT22;58877;51.992;4.504;2024-02-15T08:05:12;13.89;88.27
71177;DHT22;58877;51.992;4.504;2024-02-15T08:07:44;13.93;88.01
71177;DHT22;58877;51.992;4.504;2024-02-15T08:10:13;13.94;88.09
71177;DHT22;58877;51.992;4.504;2024-02-15T08:12:43;13.94;88.01
71177;DHT22;58877;51.992;4.504;2024-02-15T08:15:10;13.90;87.96
71177;DHT22;58877;51.992;4.504;2024-02-15T08:17:43;13.80;88.13
71177;DHT22;58877;51.992;4.504;2024-02-15T08:20:13;13.74;88.28
71177;DHT22;58877;51.992;4.504;2024-02-15T08:22:47;13.73;88.44
71177;DHT22;58877;51.992;4.504;2024-02-15T08:25:16;13.79;88.30
71177;DHT22;58877;51.992;4.504;2024-02-15T08:27:47;13.80;88.23
71177;DHT22;58877;51.992;4.504;2024-02-15T08:30:15;13.74;88.11
71177;DHT22;58877;51.992;4.504;2024-02-15T08:32:43;13.70;88.37
71177;DHT22;58877;51.992;4.504;2024-02-15T08:35:12;13.70;88.45
71177;DHT22;58877;51.992;4.504;2024-02-15T08:37:39;13.76;88.30
71177;DHT22;58877;51.992;4.504;2024-02-15T08:40:07;13.73;88.18
71177;DHT22;58877;51.992;4.504;2024-02-15T08:42:55;13.77;88.01
71177;DHT22;58877;51.992;4.504;2024-02-15T08:45:25;13.79;88.04
71177;DHT22;58877;51.992;4.504;2024-02-15T08:47:51;13.73;88.25
71177;DHT22;58877;51.992;4.504;2024-02-15T08:50:19;13.71;87.87
71177;DHT22;58877;51.992;4.504;2024-02-15T08:52:50;13.74;87.91
71177;DHT22;58877;51.992;4.504;2024-02-15T08:55:18;13.73;87.91
71177;DHT22;58877;51.992;4.504;2024-02-15T08:57:49;13.79;87.96
71177;DHT22;58877;51.992;4.504;2024-02-15T09:00:15;13.74;87.90
71177;DHT22;58877;51.992;4.504;2024-02-15T09:02:44;13.81;87.84
71177;DHT22;58877;51.992;4.504;2024-02-15T09:05:10;13.83;87.66
71177;DHT22;58877;51.992;4.504;2024-02-15T09:07:43;13.83;87.85
71177;DHT22;58877;51.992;4.504;2024-02-15T09:10:10;13.90;87.49
71177;DHT22;58877;51.992;4.504;2024-02-15T09:12:41;13.90;87.36
71177;DHT22;58877;51.992;4.504;2024-02-15T09:15:09;13.96;87.14
71177;DHT22;58877;51.992;4.504;2024-02-15T09:17:37;13.93;87.34
71177;DHT22;58877;51.992;4.504;2024-02-15T09:20:10;13.94;87.16
71177;DHT22;58877;51.992;4.504;2024-02-15T09:22:48;14.07;87.23
71177;DHT22;58877;51.992;4.504;2024-02-15T09:25:14;14.07;86.89
71177;DHT22;58877;51.992;4.504;2024-02-15T09:27:40;14.06;86.85
71177;DHT22;58877;51.992;4.504;2024-02-15T09:30:07;14.16;86.53
71177;DHT22;58877;51.992;4.504;2024-02-15T09:32:41;14.11;86.74
71177;DHT22;58877;51.992;4.504;2024-02-15T09:35:07;14.24;86.35
71177;DHT22;58877;51.992;4.504;2024-02-15T09:37:38;14.27;86.00
71177;DHT22;58877;51.992;4.504;2024-02-15T09:40:12;14.33;86.17
71177;DHT22;58877;51.992;4.504;2024-02-15T09:42:39;14.40;86.12
71177;DHT22;58877;51.992;4.504;2024-02-15T09:45:08;14.49;85.79
71177;DHT22;58877;51.992;4.504;2024-02-15T09:47:44;14.60;85.64
71177;DHT22;58877;51.992;4.504;2024-02-15T09:50:17;14.61;85.37
71177;DHT22;58877;51.992;4.504;2024-02-15T09:52:53;14.63;85.70
71177;DHT22;58877;51.992;4.504;2024-02-15T09:55:22;14.64;85.29
71177;DHT22;58877;51.992;4.504;2024-02-15T09:57:50;14.64;84.79
71177;DHT22;58877;51.992;4.504;2024-02-15T10:00:16;14.78;84.76
71177;DHT22;58877;51.992;4.504;2024-02-15T10:02:48;14.88;84.81
71177;DHT22;58877;51.992;4.504;2024-02-15T10:05:17;14.91;84.77
71177;DHT22;58877;51.992;4.504;2024-02-15T10:07:53;14.92;84.46
71177;DHT22;58877;51.992;4.504;2024-02-15T10:10:24;14.79;84.28
71177;DHT22;58877;51.992;4.504;2024-02-15T10:12:56;14.85;84.57
71177;DHT22;58877;51.992;4.504;2024-02-15T10:15:38;14.91;84.59
71177;DHT22;58877;51.992;4.504;2024-02-15T10:18:09;15.02;84.00
71177;DHT22;58877;51.992;4.504;2024-02-15T10:20:41;14.96;84.03
71177;DHT22;58877;51.992;4.504;2024-02-15T10:23:13;15.06;84.29
71177;DHT22;58877;51.992;4.504;2024-02-15T10:25:43;15.18;84.03
71177;DHT22;58877;51.992;4.504;2024-02-15T10:28:23;15.36;84.09
71177;DHT22;58877;51.992;4.504;2024-02-15T10:30:49;15.51;83.76
71177;DHT22;58877;51.992;4.504;2024-02-15T10:33:30;15.70;83.41
71177;DHT22;58877;51.992;4.504;2024-02-15T10:36:06;15.83;82.68
71177;DHT22;58877;51.992;4.504;2024-02-15T10:38:35;15.89;82.73
71177;DHT22;58877;51.992;4.504;2024-02-15T10:41:08;16.03;82.53
71177;DHT22;58877;51.992;4.504;2024-02-15T10:43:35;16.13;82.31
71177;DHT22;58877;51.992;4.504;2024-02-15T10:46:08;16.21;81.59
71177;DHT22;58877;51.992;4.504;2024-02-15T10:48:36;16.24;81.61
71177;DHT22;58877;51.992;4.504;2024-02-15T10:51:09;16.24;81.26
71177;DHT22;58877;51.992;4.504;2024-02-15T10:53:43;16.24;81.31
71177;DHT22;58877;51.992;4.504;2024-02-15T10:56:28;16.25;81.30
71177;DHT22;58877;51.992;4.504;2024-02-15T10:59:19;16.27;81.57
71177;DHT22;58877;51.992;4.504;2024-02-15T11:01:51;16.24;80.76
71177;DHT22;58877;51.992;4.504;2024-02-15T11:04:21;16.27;81.56
71177;DHT22;58877;51.992;4.504;2024-02-15T11:06:55;16.20;81.81
71177;DHT22;58877;51.992;4.504;2024-02-15T11:09:21;16.17;82.08
71177;DHT22;58877;51.992;4.504;2024-02-15T11:11:48;16.13;82.01
71177;DHT22;58877;51.992;4.504;2024-02-15T11:16:51;16.22;81.73
71177;DHT22;58877;51.992;4.504;2024-02-15T11:21:58;16.18;82.00
71177;DHT22;58877;51.992;4.504;2024-02-15T11:24:30;16.27;82.18
71177;DHT22;58877;51.992;4.504;2024-02-15T11:27:05;16.29;81.87
71177;DHT22;58877;51.992;4.504;2024-02-15T11:29:54;16.24;81.41
71177;DHT22;58877;51.992;4.504;2024-02-15T11:32:47;16.27;81.61
71177;DHT22;58877;51.992;4.504;2024-02-15T11:35:19;16.20;81.67
71177;DHT22;58877;51.992;4.504;2024-02-15T11:43:07;16.42;81.08
71177;DHT22;58877;51.992;4.504;2024-02-15T11:45:34;16.51;80.54
71177;DHT22;58877;51.992;4.504;2024-02-15T11:48:15;16.54;80.45
71177;DHT22;58877;51.992;4.504;2024-02-15T11:50:41;16.54;80.48
71177;DHT22;58877;51.992;4.504;2024-02-15T11:53:08;16.59;80.13
71177;DHT22;58877;51.992;4.504;2024-02-15T11:55:38;16.68;80.31
71177;DHT22;58877;51.992;4.504;2024-02-15T11:58:05;16.92;80.12
71177;DHT22;58877;51.992;4.504;2024-02-15T12:00:32;17.15;79.93
71177;DHT22;58877;51.992;4.504;2024-02-15T12:03:17;17.32;78.97
71177;DHT22;58877;51.992;4.504;2024-02-15T12:06:03;17.16;78.08
71177;DHT22;58877;51.992;4.504;2024-02-15T12:08:49;17.15;78.64
71177;DHT22;58877;51.992;4.504;2024-02-15T12:11:34;17.30;78.28
71177;DHT22;58877;51.992;4.504;2024-02-15T12:14:18;17.08;77.44
71177;DHT22;58877;51.992;4.504;2024-02-15T12:17:04;17.19;77.19
71177;DHT22;58877;51.992;4.504;2024-02-15T12:19:51;17.33;77.26
71177;DHT22;58877;51.992;4.504;2024-02-15T12:22:25;17.51;77.06
71177;DHT22;58877;51.992;4.504;2024-02-15T12:24:59;17.64;77.15
71177;DHT22;58877;51.992;4.504;2024-02-15T12:27:26;17.81;76.25
71177;DHT22;58877;51.992;4.504;2024-02-15T12:29:54;17.75;76.07
71177;DHT22;58877;51.992;4.504;2024-02-15T12:32:27;17.84;75.76
71177;DHT22;58877;51.992;4.504;2024-02-15T12:35:01;17.97;75.55
71177;DHT22;58877;51.992;4.504;2024-02-15T12:37:34;18.02;75.03
71177;DHT22;58877;51.992;4.504;2024-02-15T12:40:11;18.04;74.52
71177;DHT22;58877;51.992;4.504;2024-02-15T12:42:39;17.97;74.16
71177;DHT22;58877;51.992;4.504;2024-02-15T12:45:06;18.00;74.00
71177;DHT22;58877;51.992;4.504;2024-02-15T12:47:33;18.12;73.78
71177;DHT22;58877;51.992;4.504;2024-02-15T12:50:13;18.18;73.42
71177;DHT22;58877;51.992;4.504;2024-02-15T12:52:39;18.21;73.02
71177;DHT22;58877;51.992;4.504;2024-02-15T12:55:19;18.35;72.93
71177;DHT22;58877;51.992;4.504;2024-02-15T12:57:53;18.42;72.05
71177;DHT22;58877;51.992;4.504;2024-02-15T13:00:22;18.39;72.59
71177;DHT22;58877;51.992;4.504;2024-02-15T13:02:50;18.41;71.77
71177;DHT22;58877;51.992;4.504;2024-02-15T13:05:19;18.31;72.03
71177;DHT22;58877;51.992;4.504;2024-02-15T13:07:53;18.42;71.95
71177;DHT22;58877;51.992;4.504;2024-02-15T13:10:24;18.42;71.82
71177;DHT22;58877;51.992;4.504;2024-02-15T13:12:53;18.52;71.25
71177;DHT22;58877;51.992;4.504;2024-02-15T13:15:28;18.49;70.84
71177;DHT22;58877;51.992;4.504;2024-02-15T13:20:45;18.56;71.11
71177;DHT22;58877;51.992;4.504;2024-02-15T13:23:24;18.49;71.56
71177;DHT22;58877;51.992;4.504;2024-02-15T13:25:53;18.59;71.38
71177;DHT22;58877;51.992;4.504;2024-02-15T13:28:23;18.59;71.05
71177;DHT22;58877;51.992;4.504;2024-02-15T13:30:50;18.65;71.43
71177;DHT22;58877;51.992;4.504;2024-02-15T13:33:25;18.75;71.43
71177;DHT22;58877;51.992;4.504;2024-02-15T13:36:10;18.88;70.78
71177;DHT22;58877;51.992;4.504;2024-02-15T13:38:38;18.86;70.67
71177;DHT22;58877;51.992;4.504;2024-02-15T13:41:03;18.89;70.27
71177;DHT22;58877;51.992;4.504;2024-02-15T13:43:29;18.86;69.59
71177;DHT22;58877;51.992;4.504;2024-02-15T13:45:59;18.79;69.55
71177;DHT22;58877;51.992;4.504;2024-02-15T13:48:30;18.86;69.90
71177;DHT22;58877;51.992;4.504;2024-02-15T13:51:04;18.90;69.29
71177;DHT22;58877;51.992;4.504;2024-02-15T13:53:37;18.79;69.29
71177;DHT22;58877;51.992;4.504;2024-02-15T13:56:03;18.82;69.43
71177;DHT22;58877;51.992;4.504;2024-02-15T13:58:41;18.82;69.38
71177;DHT22;58877;51.992;4.504;2024-02-15T14:01:17;18.82;69.48
71177;DHT22;58877;51.992;4.504;2024-02-15T14:03:49;18.77;68.98
71177;DHT22;58877;51.992;4.504;2024-02-15T14:06:23;18.72;69.02
71177;DHT22;58877;51.992;4.504;2024-02-15T14:08:55;18.69;69.27
71177;DHT22;58877;51.992;4.504;2024-02-15T14:11:30;18.72;69.05
71177;DHT22;58877;51.992;4.504;2024-02-15T14:13:56;18.76;69.27
71177;DHT22;58877;51.992;4.504;2024-02-15T14:16:26;18.80;68.63
71177;DHT22;58877;51.992;4.504;2024-02-15T14:18:53;18.73;68.39
71177;DHT22;58877;51.992;4.504;2024-02-15T14:21:27;18.60;68.59
71177;DHT22;58877;51.992;4.504;2024-02-15T14:24:02;18.62;68.68
71177;DHT22;58877;51.992;4.504;2024-02-15T14:26:32;18.62;68.48
71177;DHT22;58877;51.992;4.504;2024-02-15T14:29:24;18.48;68.86
71177;DHT22;58877;51.992;4.504;2024-02-15T14:32:07;18.45;68.77
71177;DHT22;58877;51.992;4.504;2024-02-15T14:34:55;18.42;69.13
71177;DHT22;58877;51.992;4.504;2024-02-15T14:37:23;18.44;69.25
71177;DHT22;58877;51.992;4.504;2024-02-15T14:39:58;18.42;69.02
71177;DHT22;58877;51.992;4.504;2024-02-15T14:42:32;18.38;69.06
71177;DHT22;58877;51.992;4.504;2024-02-15T14:45:04;18.37;69.21
71177;DHT22;58877;51.992;4.504;2024-02-15T14:47:33;18.32;69.38
71177;DHT22;58877;51.992;4.504;2024-02-15T14:50:02;18.25;69.31
71177;DHT22;58877;51.992;4.504;2024-02-15T14:52:39;18.21;69.67
71177;DHT22;58877;51.992;4.504;2024-02-15T14:55:12;18.24;69.68
71177;DHT22;58877;51.992;4.504;2024-02-15T14:57:38;18.22;69.61
71177;DHT22;58877;51.992;4.504;2024-02-15T15:00:05;18.22;69.92
71177;DHT22;58877;51.992;4.504;2024-02-15T15:02:38;18.21;70.05
71177;DHT22;58877;51.992;4.504;2024-02-15T15:05:08;18.08;69.96
71177;DHT22;58877;51.992;4.504;2024-02-15T15:07:52;18.04;69.85
71177;DHT22;58877;51.992;4.504;2024-02-15T15:10:36;17.95;70.18
71177;DHT22;58877;51.992;4.504;2024-02-15T15:13:21;17.94;70.10
71177;DHT22;58877;51.992;4.504;2024-02-15T15:15:48;17.95;70.10
71177;DHT22;58877;51.992;4.504;2024-02-15T15:18:14;17.94;70.27
71177;DHT22;58877;51.992;4.504;2024-02-15T15:20:40;17.95;70.21
71177;DHT22;58877;51.992;4.504;2024-02-15T15:23:06;17.97;69.71
71177;DHT22;58877;51.992;4.504;2024-02-15T15:25:34;17.95;69.82
71177;DHT22;58877;51.992;4.504;2024-02-15T15:28:05;17.91;69.77
71177;DHT22;58877;51.992;4.504;2024-02-15T15:30:31;17.88;70.01
71177;DHT22;58877;51.992;4.504;2024-02-15T15:32:57;17.83;70.11
71177;DHT22;58877;51.992;4.504;2024-02-15T15:35:23;17.81;69.84
71177;DHT22;58877;51.992;4.504;2024-02-15T15:37:56;17.77;69.97
71177;DHT22;58877;51.992;4.504;2024-02-15T15:40:23;17.73;69.95
71177;DHT22;58877;51.992;4.504;2024-02-15T15:42:49;17.71;69.79
71177;DHT22;58877;51.992;4.504;2024-02-15T15:45:15;17.69;69.97
71177;DHT22;58877;51.992;4.504;2024-02-15T15:47:41;17.66;69.99
71177;DHT22;58877;51.992;4.504;2024-02-15T15:50:10;17.64;70.10
71177;DHT22;58877;51.992;4.504;2024-02-15T15:52:43;17.67;69.92
71177;DHT22;58877;51.992;4.504;2024-02-15T15:55:11;17.66;70.07
71177;DHT22;58877;51.992;4.504;2024-02-15T15:57:40;17.67;69.88
71177;DHT22;58877;51.992;4.504;2024-02-15T16:00:11;17.66;69.96